createdAt,value
2023-04-12T00:01:59.856Z,100010.97
2023-04-12T00:04:29.671Z,100001.66
2023-04-12T00:06:56.654Z,100007.00
2023-04-12T00:09:23.229Z,100004.75
2023-04-12T00:11:49.590Z,100002.38
2023-04-12T00:14:16.038Z,100003.06
2023-04-12T00:16:43.106Z,99992.38
2023-04-12T00:19:09.552Z,99993.91
2023-04-12T00:21:35.949Z,99993.63
2023-04-12T00:24:02.294Z,99992.34
2023-04-12T00:26:28.689Z,99994.47
2023-04-12T00:28:55.733Z,99986.72
2023-04-12T00:31:22.429Z,99988.81
2023-04-12T00:33:48.887Z,99993.19
2023-04-12T00:36:15.715Z,99987.72
2023-04-12T00:38:42.464Z,99984.19
2023-04-12T00:41:08.863Z,99976.56
2023-04-12T00:43:35.217Z,99980.38
2023-04-12T00:46:01.800Z,99968.84
2023-04-12T00:48:28.858Z,99977.13
2023-04-12T00:50:55.580Z,99975.19
2023-04-12T00:53:25.470Z,99970.78
2023-04-12T00:55:52.851Z,99962.34
2023-04-12T00:58:19.338Z,99970.50
2023-04-12T01:00:50.303Z,99962.19
2023-04-12T01:03:23.303Z,99959.22
2023-04-12T01:06:09.739Z,99965.00
2023-04-12T01:08:43.610Z,99967.47
2023-04-12T01:11:20.686Z,99960.41
2023-04-12T01:13:55.880Z,99953.81
2023-04-12T01:16:30.941Z,99948.03
2023-04-12T01:19:03.636Z,99941.34
2023-04-12T01:21:51.226Z,99938.81
2023-04-12T01:24:36.457Z,99929.97
2023-04-12T01:27:03.629Z,99924.91
2023-04-12T01:29:31.131Z,99923.47
2023-04-12T01:32:01.071Z,99921.22
2023-04-12T01:34:30.151Z,99912.22
2023-04-12T01:36:58.674Z,99908.00
2023-04-12T01:39:25.657Z,99906.44
2023-04-12T01:41:52.038Z,99899.53
2023-04-12T01:44:18.937Z,99890.22
2023-04-12T01:46:47.285Z,99886.84
2023-04-12T01:49:15.545Z,99882.78
2023-04-12T01:52:09.384Z,99880.38
2023-04-12T01:54:38.796Z,99878.44
2023-04-12T01:57:08.375Z,99861.94
2023-04-12T01:59:45.215Z,99864.09
2023-04-12T02:02:13.595Z,99868.69
2023-04-12T02:04:41.975Z,99864.16
2023-04-12T02:07:09.381Z,99861.78
2023-04-12T02:09:38.960Z,99857.28
2023-04-12T02:12:09.096Z,99853.75
2023-04-12T02:14:35.720Z,99833.22
2023-04-12T02:17:02.418Z,99849.13
2023-04-12T02:19:28.949Z,99843.22
2023-04-12T02:21:55.461Z,99845.44
2023-04-12T02:24:22.140Z,99832.22
2023-04-12T02:26:51.503Z,99833.75
2023-04-12T02:29:18.065Z,99813.97
2023-04-12T02:31:44.415Z,99806.50
2023-04-12T02:34:10.823Z,99802.69
2023-04-12T02:36:37.662Z,99797.22
2023-04-12T02:39:04.587Z,99797.94
2023-04-12T02:41:30.979Z,99788.63
2023-04-12T02:43:57.661Z,99783.31
2023-04-12T02:46:27.027Z,99784.16
2023-04-12T02:48:53.469Z,99772.91
2023-04-12T02:51:19.800Z,99775.44
2023-04-12T02:53:46.178Z,99772.03
2023-04-12T02:56:12.888Z,99767.56
2023-04-12T02:58:39.646Z,99767.97
2023-04-12T03:01:09.012Z,99758.81
2023-04-12T03:03:35.642Z,99763.47
2023-04-12T03:06:02.499Z,99744.22
2023-04-12T03:08:28.895Z,99739.97
2023-04-12T03:10:55.644Z,99741.81
2023-04-12T03:13:22.013Z,99747.56
2023-04-12T03:15:49.563Z,99749.50
2023-04-12T03:18:17.206Z,99734.91
2023-04-12T03:20:45.389Z,99729.72
2023-04-12T03:23:13.738Z,99732.53
2023-04-12T03:25:40.958Z,99721.28
2023-04-12T03:28:07.371Z,99713.56
2023-04-12T03:30:33.852Z,99714.69
2023-04-12T03:33:00.712Z,99707.66
2023-04-12T03:35:27.212Z,99696.84
2023-04-12T03:37:53.563Z,99701.47
2023-04-12T03:40:20.212Z,99692.50
2023-04-12T03:42:46.507Z,99688.41
2023-04-12T03:45:12.875Z,99680.09
2023-04-12T03:47:39.482Z,99676.50
2023-04-12T03:52:36.523Z,99660.59
2023-04-12T03:55:03.060Z,99660.47
2023-04-12T03:57:29.393Z,99645.84
2023-04-12T03:59:55.726Z,99645.41
2023-04-12T04:02:22.228Z,99648.97
2023-04-12T04:04:48.870Z,99640.06
2023-04-12T04:07:15.953Z,99626.03
2023-04-12T04:09:42.376Z,99630.97
2023-04-12T04:12:08.877Z,99623.50
2023-04-12T04:14:36.809Z,99609.31
2023-04-12T04:17:03.347Z,99604.84
2023-04-12T04:19:29.844Z,99596.13
2023-04-12T04:21:56.666Z,99588.41
2023-04-12T04:24:25.013Z,99578.44
2023-04-12T04:26:54.164Z,99577.44
2023-04-12T04:29:20.713Z,99575.75
2023-04-12T04:31:47.258Z,99565.34
2023-04-12T04:34:13.689Z,99560.75
2023-04-12T04:36:41.559Z,99559.06
2023-04-12T04:39:07.945Z,99556.38
2023-04-12T04:41:34.420Z,99548.94
2023-04-12T04:44:00.960Z,99545.56
2023-04-12T04:46:30.459Z,99534.31
2023-04-12T04:48:58.497Z,99529.81
2023-04-12T04:51:25.489Z,99532.63
2023-04-12T04:53:51.810Z,99530.66
2023-04-12T04:56:18.188Z,99532.38
2023-04-12T04:58:44.477Z,99522.53
2023-04-12T05:01:13.241Z,99515.78
2023-04-12T05:03:40.848Z,99518.59
2023-04-12T05:06:08.471Z,99514.78
2023-04-12T05:08:34.837Z,99521.69
2023-04-12T05:11:01.323Z,99518.88
2023-04-12T05:13:27.717Z,99507.06
2023-04-12T05:15:54.114Z,99501.56
2023-04-12T05:18:20.746Z,99489.38
2023-04-12T05:20:48.354Z,99489.06
2023-04-12T05:23:15.618Z,99477.00
2023-04-12T05:25:49.910Z,99470.81
2023-04-12T05:28:17.345Z,99473.91
2023-04-12T05:30:44.877Z,99461.28
2023-04-12T05:33:11.504Z,99459.72
2023-04-12T05:35:38.291Z,99464.78
2023-04-12T05:38:04.702Z,99450.44
2023-04-12T05:40:31.742Z,99447.09
2023-04-12T05:42:58.529Z,99435.44
2023-04-12T05:45:24.982Z,99431.34
2023-04-12T05:47:51.392Z,99434.16
2023-04-12T05:50:17.874Z,99423.34
2023-04-12T05:52:44.486Z,99410.56
2023-04-12T05:55:10.891Z,99413.50
2023-04-12T05:57:37.241Z,99396.25
2023-04-12T06:00:08.351Z,99399.88
2023-04-12T06:02:34.931Z,99398.22
2023-04-12T06:05:03.351Z,99381.47
2023-04-12T06:07:30.008Z,99391.31
2023-04-12T06:09:56.410Z,99393.00
2023-04-12T06:12:22.834Z,99386.13
2023-04-12T06:14:49.150Z,99381.47
2023-04-12T06:17:15.692Z,99384.00
2023-04-12T06:19:42.139Z,99380.38
2023-04-12T06:22:08.771Z,99378.53
2023-04-12T06:24:35.145Z,99374.44
2023-04-12T06:27:01.457Z,99376.13
2023-04-12T06:29:27.762Z,99378.81
2023-04-12T06:31:54.140Z,99376.69
2023-04-12T06:34:20.543Z,99379.53
2023-04-12T06:36:47.687Z,99367.03
2023-04-12T06:39:16.149Z,99359.53
2023-04-12T06:41:47.422Z,99355.47
2023-04-12T06:44:13.754Z,99348.56
2023-04-12T06:46:40.134Z,99353.06
2023-04-12T06:49:06.528Z,99342.38
2023-04-12T06:51:34.512Z,99335.94
2023-04-12T06:54:01.363Z,99336.78
2023-04-12T06:56:27.872Z,99331.13
2023-04-12T06:58:54.210Z,99325.63
2023-04-12T07:01:20.708Z,99318.31
2023-04-12T07:03:48.270Z,99307.78
2023-04-12T07:06:25.174Z,99302.19
2023-04-12T07:08:53.087Z,99303.00
2023-04-12T07:11:22.338Z,99296.53
2023-04-12T07:13:49.514Z,99300.72
2023-04-12T07:16:16.455Z,99283.59
2023-04-12T07:18:42.840Z,99288.63
2023-04-12T07:21:09.328Z,99274.28
2023-04-12T07:23:35.719Z,99264.13
2023-04-12T07:26:02.524Z,99257.50
2023-04-12T07:28:28.922Z,99248.06
2023-04-12T07:30:55.391Z,99234.69
2023-04-12T07:33:21.918Z,99233.91
2023-04-12T07:35:48.461Z,99212.69
2023-04-12T07:38:16.678Z,99225.13
2023-04-12T07:40:43.509Z,99223.25
2023-04-12T07:43:09.887Z,99209.91
2023-04-12T07:45:37.390Z,99212.94
2023-04-12T07:48:04.146Z,99212.31
2023-04-12T07:50:30.548Z,99204.97
2023-04-12T07:53:22.238Z,99192.84
2023-04-12T07:55:49.269Z,99201.69
2023-04-12T07:58:17.045Z,99191.84
2023-04-12T08:00:44.317Z,99187.16
2023-04-12T08:03:16.045Z,99194.19
2023-04-12T08:05:42.891Z,99194.03
2023-04-12T08:08:10.020Z,99191.06
2023-04-12T08:10:37.311Z,99185.56
2023-04-12T08:13:04.833Z,99190.22
2023-04-12T08:15:31.447Z,99182.06
2023-04-12T08:17:58.131Z,99185.22
2023-04-12T08:20:24.458Z,99187.44
2023-04-12T08:22:52.086Z,99176.38
2023-04-12T08:25:18.811Z,99176.91
2023-04-12T08:27:45.853Z,99175.59
2023-04-12T08:30:12.880Z,99170.13
2023-04-12T08:32:39.502Z,99159.81
2023-04-12T08:35:06.472Z,99170.34
2023-04-12T08:37:33.169Z,99153.47
2023-04-12T08:40:02.373Z,99157.19
2023-04-12T08:42:28.901Z,99154.19
2023-04-12T08:44:55.525Z,99152.16
2023-04-12T08:47:22.336Z,99137.97
2023-04-12T08:49:48.764Z,99146.53
2023-04-12T08:52:15.649Z,99138.00
2023-04-12T08:54:41.952Z,99135.50
2023-04-12T08:57:09.152Z,99136.03
2023-04-12T08:59:42.213Z,99130.03
2023-04-12T09:02:09.457Z,99124.84
2023-04-12T09:04:48.612Z,99114.50
2023-04-12T09:07:15.564Z,99111.50
2023-04-12T09:09:45.516Z,99109.19
2023-04-12T09:12:13.517Z,99113.38
2023-04-12T09:14:43.598Z,99108.69
2023-04-12T09:17:27.212Z,99096.69
2023-04-12T09:19:57.350Z,99093.16
2023-04-12T09:22:37.535Z,99091.16
2023-04-12T09:25:04.236Z,99081.13
2023-04-12T09:27:45.038Z,99081.78
2023-04-12T09:30:11.963Z,99066.91
2023-04-12T09:32:38.325Z,99080.31
2023-04-12T09:35:05.718Z,99084.00
2023-04-12T09:37:32.075Z,99067.78
2023-04-12T09:40:09.428Z,99074.16
2023-04-12T09:42:56.168Z,99063.75
2023-04-12T09:45:25.998Z,99057.25
2023-04-12T09:47:53.577Z,99053.22
2023-04-12T09:50:32.736Z,99055.09
2023-04-12T09:53:01.569Z,99046.03
2023-04-12T09:55:30.382Z,99040.38
2023-04-12T09:57:57.009Z,99041.69
2023-04-12T10:00:26.662Z,99037.19
2023-04-12T10:02:56.528Z,99034.31
2023-04-12T10:05:28.363Z,99029.66
2023-04-12T10:07:55.586Z,99024.31
2023-04-12T10:10:22.909Z,99016.75
2023-04-12T10:13:07.984Z,99017.94
2023-04-12T10:15:35.535Z,99019.78
2023-04-12T10:18:02.844Z,99016.59
2023-04-12T10:20:29.858Z,99014.56
2023-04-12T10:22:57.644Z,98992.81
2023-04-12T10:25:26.841Z,99008.19
2023-04-12T10:27:53.584Z,99002.00
2023-04-12T10:30:33.147Z,99000.84
2023-04-12T10:33:02.703Z,98992.63
2023-04-12T10:35:30.523Z,98981.75
2023-04-12T10:37:59.684Z,98979.53
2023-04-12T10:40:26.372Z,98981.25
2023-04-12T10:43:27.769Z,98988.09
2023-04-12T10:45:54.820Z,98979.41
2023-04-12T10:48:38.282Z,98968.00
2023-04-12T10:51:24.885Z,98974.31
2023-04-12T10:53:52.529Z,98979.84
2023-04-12T10:56:33.840Z,98974.81
2023-04-12T10:59:01.873Z,98969.28
2023-04-12T11:01:29.172Z,98964.91
2023-04-12T11:04:13.752Z,98968.41
2023-04-12T11:06:58.488Z,98961.84
2023-04-12T11:09:28.182Z,98968.38
2023-04-12T11:12:03.700Z,98957.81
2023-04-12T11:14:37.133Z,98960.81
2023-04-12T11:17:06.700Z,98958.47
2023-04-12T11:19:34.453Z,98950.91
2023-04-12T11:22:02.288Z,98959.09
2023-04-12T11:24:29.942Z,98948.00
2023-04-12T11:26:57.747Z,98943.16
2023-04-12T11:29:24.842Z,98937.06
2023-04-12T11:31:51.537Z,98931.69
2023-04-12T11:34:18.957Z,98929.59
2023-04-12T11:36:46.734Z,98933.16
2023-04-12T11:39:13.677Z,98924.09
2023-04-12T11:41:47.545Z,98912.34
2023-04-12T11:44:17.848Z,98916.13
2023-04-12T11:46:44.889Z,98916.81
2023-04-12T11:49:16.273Z,98909.53
2023-04-12T11:51:43.945Z,98910.97
2023-04-12T11:54:11.273Z,98910.06
2023-04-12T11:56:38.616Z,98910.72
2023-04-12T11:59:06.093Z,98905.34
2023-04-12T12:01:35.488Z,98906.31
2023-04-12T12:04:02.795Z,98906.56
2023-04-12T12:06:30.518Z,98899.72
2023-04-12T12:08:57.494Z,98912.13
2023-04-12T12:11:24.662Z,98907.50
2023-04-12T12:13:51.873Z,98895.56
2023-04-12T12:16:19.634Z,98887.78
2023-04-12T12:18:51.065Z,98896.78
2023-04-12T12:21:19.293Z,98894.28
2023-04-12T12:23:47.128Z,98894.84
2023-04-12T12:26:30.731Z,98891.97
2023-04-12T12:29:00.010Z,98896.50
2023-04-12T12:31:28.209Z,98915.94
2023-04-12T12:33:57.384Z,98910.94
2023-04-12T12:36:38.759Z,98904.75
2023-04-12T12:39:10.776Z,98910.38
2023-04-12T12:41:38.651Z,98901.03
2023-04-12T12:44:05.536Z,98906.09
2023-04-12T12:46:50.661Z,98912.03
2023-04-12T12:49:18.927Z,98895.06
2023-04-12T12:51:45.525Z,98907.56
2023-04-12T12:54:12.170Z,98904.38
2023-04-12T12:56:38.554Z,98896.72
2023-04-12T12:59:04.887Z,98910.97
2023-04-12T13:01:31.354Z,98907.25
2023-04-12T13:03:58.884Z,98907.63
2023-04-12T13:06:26.966Z,98904.28
2023-04-12T13:08:56.090Z,98906.50
2023-04-12T13:11:22.678Z,98910.19
2023-04-12T13:13:57.508Z,98909.53
2023-04-12T13:16:26.266Z,98881.69
2023-04-12T13:18:53.470Z,98892.53
2023-04-12T13:21:19.810Z,98888.94
2023-04-12T13:23:46.141Z,98873.34
2023-04-12T13:26:12.504Z,98883.66
2023-04-12T13:28:38.803Z,98876.03
2023-04-12T13:31:06.040Z,98880.31
2023-04-12T13:33:32.422Z,98874.09
2023-04-12T13:35:58.967Z,98875.78
2023-04-12T13:38:25.471Z,98882.84
2023-04-12T13:40:51.804Z,98878.13
2023-04-12T13:43:18.217Z,98878.56
2023-04-12T13:45:44.918Z,98859.75
2023-04-12T13:48:11.352Z,98871.72
2023-04-12T13:50:37.774Z,98868.41
2023-04-12T13:53:04.142Z,98882.66
2023-04-12T13:55:30.431Z,98881.63
2023-04-12T13:57:57.112Z,98868.75
2023-04-12T14:00:23.428Z,98872.25
2023-04-12T14:02:49.832Z,98875.50
2023-04-12T14:05:16.491Z,98876.72
2023-04-12T14:07:42.920Z,98877.38
2023-04-12T14:10:09.945Z,98872.44
2023-04-12T14:12:36.437Z,98842.91
2023-04-12T14:15:03.720Z,98869.22
2023-04-12T14:17:32.429Z,98889.69
2023-04-12T14:19:59.315Z,98885.69
2023-04-12T14:22:25.777Z,98881.16
2023-04-12T14:24:52.153Z,98887.53
2023-04-12T14:27:18.526Z,98883.19
2023-04-12T14:29:44.893Z,98874.69
2023-04-12T14:32:11.622Z,98887.28
2023-04-12T14:34:38.017Z,98889.66
2023-04-12T14:37:04.600Z,98884.66
2023-04-12T14:39:30.985Z,98892.53
2023-04-12T14:41:57.484Z,98898.44
2023-04-12T14:44:26.153Z,98890.75
2023-04-12T14:46:53.143Z,98885.00
2023-04-12T14:49:19.693Z,98885.97
2023-04-12T14:51:46.179Z,98883.56
2023-04-12T14:54:12.743Z,98880.88
2023-04-12T14:56:46.782Z,98893.28
2023-04-12T14:59:16.358Z,98874.50
2023-04-12T15:01:43.295Z,98896.63
2023-04-12T15:04:09.751Z,98899.31
2023-04-12T15:06:42.185Z,98906.72
2023-04-12T15:09:09.839Z,98900.06
2023-04-12T15:11:36.636Z,98911.84
2023-04-12T15:14:04.167Z,98909.50
2023-04-12T15:16:30.659Z,98896.13
2023-04-12T15:18:58.671Z,98895.53
2023-04-12T15:21:27.636Z,98898.31
2023-04-12T15:23:53.992Z,98905.16
2023-04-12T15:26:20.511Z,98906.22
2023-04-12T15:28:47.086Z,98898.56
2023-04-12T15:31:13.556Z,98892.66
2023-04-12T15:33:39.980Z,98890.81
2023-04-12T15:36:06.764Z,98892.22
2023-04-12T15:38:41.306Z,98892.72
2023-04-12T15:41:08.114Z,98898.91
2023-04-12T15:43:34.763Z,98901.56
2023-04-12T15:46:02.293Z,98906.38
2023-04-12T15:48:28.693Z,98891.28
2023-04-12T15:50:58.423Z,98918.94
2023-04-12T15:53:27.046Z,98920.38
2023-04-12T15:55:56.234Z,98916.75
2023-04-12T15:58:23.483Z,98923.09
2023-04-12T16:00:50.037Z,98931.72
2023-04-12T16:03:22.774Z,98932.78
2023-04-12T16:05:53.161Z,98924.34
2023-04-12T16:08:22.934Z,98937.41
2023-04-12T16:10:50.524Z,98942.69
2023-04-12T16:13:17.035Z,98939.47
2023-04-12T16:15:43.492Z,98944.22
2023-04-12T16:18:09.967Z,98949.53
2023-04-12T16:20:40.721Z,98949.34
2023-04-12T16:23:07.721Z,98946.28
2023-04-12T16:25:35.742Z,98951.13
2023-04-12T16:28:02.677Z,98949.16
2023-04-12T16:30:31.444Z,98948.25
2023-04-12T16:32:58.137Z,98947.75
2023-04-12T16:35:24.674Z,98939.16
2023-04-12T16:37:51.261Z,98944.97
2023-04-12T16:40:17.910Z,98944.59
2023-04-12T16:42:44.753Z,98940.53
2023-04-12T16:45:12.126Z,98932.75
2023-04-12T16:47:39.338Z,98929.97
2023-04-12T16:50:12.660Z,98932.22
2023-04-12T16:52:39.884Z,98928.00
2023-04-12T16:55:06.687Z,98929.97
2023-04-12T16:57:33.116Z,98934.03
2023-04-12T16:59:59.552Z,98923.41
2023-04-12T17:02:26.541Z,98928.97
2023-04-12T17:04:53.163Z,98931.31
2023-04-12T17:07:19.654Z,98938.56
2023-04-12T17:09:46.090Z,98942.63
2023-04-12T17:12:12.859Z,98952.13
2023-04-12T17:14:39.212Z,98948.13
2023-04-12T17:17:06.672Z,98951.09
2023-04-12T17:19:33.351Z,98955.16
2023-04-12T17:21:59.706Z,98950.16
2023-04-12T17:24:26.418Z,98957.78
2023-04-12T17:26:53.254Z,98960.00
2023-04-12T17:29:20.308Z,98962.06
2023-04-12T17:31:49.779Z,98955.63
2023-04-12T17:34:18.477Z,98961.31
2023-04-12T17:36:44.905Z,98954.47
2023-04-12T17:39:11.426Z,98954.56
2023-04-12T17:41:38.128Z,98961.28
2023-04-12T17:44:05.476Z,98965.44
2023-04-12T17:46:32.199Z,98964.41
2023-04-12T17:48:59.742Z,98973.69
2023-04-12T17:51:26.692Z,98972.56
2023-04-12T17:53:55.113Z,98978.31
2023-04-12T17:56:21.472Z,98979.38
2023-04-12T17:58:47.814Z,98982.63
2023-04-12T18:01:15.370Z,98984.38
2023-04-12T18:03:42.459Z,98988.59
2023-04-12T18:06:08.953Z,98985.91
2023-04-12T18:08:37.488Z,98992.03
2023-04-12T18:11:06.476Z,98997.09
2023-04-12T18:13:32.891Z,99009.50
2023-04-12T18:15:59.320Z,99020.13
2023-04-12T18:18:26.020Z,99020.38
2023-04-12T18:20:52.686Z,99028.63
2023-04-12T18:23:19.080Z,99040.00
2023-04-12T18:25:45.613Z,99046.38
2023-04-12T18:28:12.029Z,99044.72
2023-04-12T18:30:38.409Z,99045.44
2023-04-12T18:33:05.390Z,99043.28
2023-04-12T18:35:31.810Z,99057.59
2023-04-12T18:37:58.318Z,99068.50
2023-04-12T18:40:24.658Z,99063.84
2023-04-12T18:42:51.043Z,99067.84
2023-04-12T18:45:17.571Z,99083.28
2023-04-12T18:47:44.647Z,99095.91
2023-04-12T18:50:11.520Z,99093.44
2023-04-12T18:52:38.632Z,99135.34
2023-04-12T18:55:05.754Z,99150.44
2023-04-12T18:57:32.073Z,99191.03
2023-04-12T18:59:59.112Z,99204.16
2023-04-12T19:02:25.953Z,99205.69
2023-04-12T19:04:52.454Z,99220.28
2023-04-12T19:07:18.785Z,99235.34
2023-04-12T19:09:46.937Z,99235.44
2023-04-12T19:12:13.264Z,99241.78
2023-04-12T19:14:39.585Z,99237.06
2023-04-12T19:17:05.987Z,99237.56
2023-04-12T19:19:32.302Z,99219.63
2023-04-12T19:21:58.593Z,99227.25
2023-04-12T19:24:24.969Z,99214.16
2023-04-12T19:26:51.353Z,99218.00
2023-04-12T19:29:19.609Z,99218.88
2023-04-12T19:31:47.336Z,99213.31
2023-04-12T19:34:17.774Z,99206.25
2023-04-12T19:36:44.577Z,99202.38
2023-04-12T19:39:10.940Z,99216.94
2023-04-12T19:41:37.279Z,99203.41
2023-04-12T19:44:03.709Z,99201.91
2023-04-12T19:46:30.039Z,99190.94
2023-04-12T19:48:58.334Z,99180.19
2023-04-12T19:51:25.544Z,99201.81
2023-04-12T19:53:53.122Z,99212.06
2023-04-12T19:56:20.192Z,99201.03
2023-04-12T19:58:46.516Z,99203.47
2023-04-12T20:01:13.595Z,99194.69
2023-04-12T20:03:43.506Z,99199.50
2023-04-12T20:06:10.881Z,99204.09
2023-04-12T20:08:37.825Z,99215.09
2023-04-12T20:11:04.795Z,99214.69
2023-04-12T20:13:31.382Z,99210.03
2023-04-12T20:16:00.716Z,99211.56
2023-04-12T20:18:28.366Z,99211.25
2023-04-12T20:20:57.532Z,99220.09
2023-04-12T20:23:25.306Z,99224.38
2023-04-12T20:25:51.662Z,99235.22
2023-04-12T20:28:18.328Z,99232.28
2023-04-12T20:30:46.814Z,99243.13
2023-04-12T20:33:13.396Z,99246.94
2023-04-12T20:35:39.737Z,99251.44
2023-04-12T20:38:06.955Z,99243.72
2023-04-12T20:40:34.302Z,99248.22
2023-04-12T20:43:00.648Z,99254.72
2023-04-12T20:45:27.091Z,99260.34
2023-04-12T20:47:53.426Z,99266.81
2023-04-12T20:50:22.378Z,99262.22
2023-04-12T20:52:49.646Z,99288.31
2023-04-12T20:55:16.064Z,99286.22
2023-04-12T20:57:43.639Z,99290.72
2023-04-12T21:00:17.406Z,99293.28
2023-04-12T21:02:45.528Z,99296.69
2023-04-12T21:05:13.143Z,99297.19
2023-04-12T21:07:41.261Z,99286.88
2023-04-12T21:10:12.077Z,99284.94
2023-04-12T21:12:40.049Z,99284.69
2023-04-12T21:15:08.092Z,99293.25
2023-04-12T21:17:36.008Z,99291.16
2023-04-12T21:20:13.670Z,99293.94
2023-04-12T21:22:42.803Z,99299.03
2023-04-12T21:25:14.928Z,99295.81
2023-04-12T21:27:42.349Z,99299.88
2023-04-12T21:30:12.650Z,99293.69
2023-04-12T21:32:39.670Z,99306.22
2023-04-12T21:35:07.252Z,99310.31
2023-04-12T21:37:35.858Z,99311.88
2023-04-12T21:40:07.498Z,99307.78
2023-04-12T21:42:35.451Z,99308.38
2023-04-12T21:45:02.581Z,99290.81
2023-04-12T21:47:29.398Z,99318.44
2023-04-12T21:49:55.913Z,99310.31
2023-04-12T21:52:22.318Z,99303.88
2023-04-12T21:54:48.624Z,99308.38
2023-04-12T21:57:15.719Z,99311.44
2023-04-12T21:59:43.803Z,99323.94
2023-04-12T22:02:10.593Z,99318.03
2023-04-12T22:04:37.004Z,99321.56
2023-04-12T22:07:03.953Z,99316.38
2023-04-12T22:09:30.414Z,99314.13
2023-04-12T22:11:56.841Z,99306.41
2023-04-12T22:14:27.901Z,99308.38
2023-04-12T22:16:55.003Z,99322.13
2023-04-12T22:19:21.426Z,99324.50
2023-04-12T22:21:49.063Z,99316.63
2023-04-12T22:24:16.217Z,99323.38
2023-04-12T22:26:42.545Z,99321.53
2023-04-12T22:29:09.718Z,99318.44
2023-04-12T22:31:38.348Z,99322.53
2023-04-12T22:34:04.997Z,99327.03
2023-04-12T22:36:37.155Z,99327.03
2023-04-12T22:39:04.565Z,99324.38
2023-04-12T22:41:32.979Z,99315.25
2023-04-12T22:44:02.042Z,99318.75
2023-04-12T22:46:32.089Z,99322.94
2023-04-12T22:49:00.411Z,99329.28
2023-04-12T22:51:27.804Z,99319.75
2023-04-12T22:53:55.230Z,99320.28
2023-04-12T22:56:21.796Z,99327.16
2023-04-12T22:58:48.319Z,99332.47
2023-04-12T23:01:14.716Z,99333.06
2023-04-12T23:03:44.592Z,99322.41
2023-04-12T23:06:12.608Z,99321.81
2023-04-12T23:08:39.193Z,99320.59
2023-04-12T23:11:05.909Z,99321.69
2023-04-12T23:13:35.229Z,99316.50
2023-04-12T23:16:03.524Z,99325.47
2023-04-12T23:18:30.204Z,99321.28
2023-04-12T23:20:56.525Z,99324.09
2023-04-12T23:23:24.572Z,99315.81
2023-04-12T23:25:52.230Z,99316.78
2023-04-12T23:28:19.470Z,99308.34
2023-04-12T23:30:49.872Z,99322.13
2023-04-12T23:33:20.772Z,99311.31
2023-04-12T23:36:02.501Z,99310.88
2023-04-12T23:38:33.518Z,99302.34
2023-04-12T23:41:06.421Z,99301.22
2023-04-12T23:43:34.533Z,99310.91
2023-04-12T23:46:02.099Z,99298.28
2023-04-12T23:48:29.270Z,99313.44
2023-04-12T23:50:55.714Z,99302.50
2023-04-12T23:53:22.099Z,99295.63
2023-04-12T23:55:50.980Z,99301.78
2023-04-12T23:58:18.076Z,99305.44
